CheckWX is a tool to help pilots better visualize weather data.  It is not intended as a substitute for an official pre-flight weather briefing.

09:26:26 UTC

PABE TAF
Bethel Airport
Bethel, Alaska, USA
PABE 051139Z 0512/0612 23030G40KT P6SM -SHSN SCT025 OVC035 FM051800 23025G35KT P6SM OVC025 TEMPO 0518/0522 4SM -SHSN OVC015 FM060000 24030G40KT P6SM -SN BKN025 FM060900 26025G35KT P6SM BKN015

Apr-5@
12:00 UTC

Apr-5 @ 12:00 UTC

Apr-5@
18:00 UTC

Apr-5 @ 18:00 UTC

TAF PABE 051139Z 0512/0612 23030G40KT P6SM -SHSN SCT025 OVC035

Expired

Wind
  • 230° at 30 KTS
  • {Gusting to 40 KTS
Conditions
Light Showers, Snow
Cloud Levels
  • Scattered at 2,500' AGL
  • Overcast at 3,500' AGL

Apr-5@
18:00 UTC

Apr-5 @ 18:00 UTC

Apr-5@
22:00 UTC

Apr-5 @ 22:00 UTC

TEMPO 0518/0522 4SM -SHSN OVC015

Expired

Conditions
Light Showers, Snow
Cloud Levels
  • Overcast at 1,500' AGL

Apr-5@
18:00 UTC

Apr-5 @ 18:00 UTC

Apr-6@
00:00 UTC

Apr-6 @ 00:00 UTC

FM051800 23025G35KT P6SM OVC025

Expired

Wind
  • 230° at 25 KTS
  • {Gusting to 35 KTS
Cloud Levels
  • Overcast at 2,500' AGL

Apr-6@
00:00 UTC

Apr-6 @ 00:00 UTC

Apr-6@
09:00 UTC

Apr-6 @ 09:00 UTC

FM060000 24030G40KT P6SM -SN BKN025

Expired

Wind
  • 240° at 30 KTS
  • {Gusting to 40 KTS
Conditions
Light Snow
Cloud Levels
  • Broken at 2,500' AGL

Apr-6@
09:00 UTC

Apr-6 @ 09:00 UTC

Apr-6@
12:00 UTC

Apr-6 @ 12:00 UTC

FM060900 26025G35KT P6SM BKN015

From

From Standard forecast or significant change

Wind
  • 260° at 25 KTS
  • {Gusting to 35 KTS
Cloud Levels
  • Broken at 1,500' AGL